E.r.bristol — A8XQ6 — position and weather

sailwx.info

Track history (hours):
 
Tides and Currents Weather Stations Pressure Air Temp Water Temp Dewpoint Dewpoint Depression Visibility Wind Speed Wind Dir Waves Ship Positions

E.r.bristol

Last reported at 2015-Mar-14 06:10 UTC. Time now 2015-Apr-01 22:33 UTC.
Position N 37°34' E 122°52'.
Warning: this ship's position is 18 days out of date.

Length 188 m; draft 6.8 m.

Type: Cargo ship. MMSI: 636092151.

Date/timePositionNaut miles runAvg speedWind from/ knotsBaromVisibWave heightAir tempDewpointWater temp
2015-Mar-14 06:10N 37°34' E 122°52'711.0
2015-Mar-14 05:33N 37°39' E 122°46'1110.6
2015-Mar-14 04:32N 37°45' E 122°35'1310.9
2015-Mar-14 03:18N 37°52' E 122°21'911.3
2015-Mar-14 02:32N 37°57' E 122°11'1211.6
2015-Mar-14 01:31N 38°03' E 121°58'12611.4
2015-Mar-13 14:29N 38°45' E 119°27'81 4.2
2015-Mar-12 19:24N 38°57' E 117°44'0 0.0
2015-Mar-12 18:30N 38°57' E 117°44'0 0.0
2015-Mar-12 17:30N 38°57' E 117°44'0 0.0
2015-Mar-12 16:30N 38°57' E 117°44'0 0.0
2015-Mar-12 15:30N 38°57' E 117°44'0 0.0
2015-Mar-12 14:30N 38°57' E 117°44'0 0.0
2015-Mar-12 13:30N 38°57' E 117°44'0 0.0
2015-Mar-12 12:30N 38°57' E 117°44'0 0.0
2015-Mar-12 11:30N 38°57' E 117°44'0 0.0
2015-Mar-12 10:30N 38°57' E 117°44'0 0.0
2015-Mar-12 09:12N 38°57' E 117°44'0 0.0
2015-Mar-12 08:24N 38°57' E 117°44'0 0.0
2015-Mar-12 07:12N 38°57' E 117°44'0 0.0
2015-Mar-12 06:24N 38°57' E 117°44'0 0.0
2015-Mar-12 05:12N 38°57' E 117°44'0 0.0
2015-Mar-12 04:24N 38°57' E 117°44'0 0.0
2015-Mar-12 03:18N 38°57' E 117°44'0 0.0
2015-Mar-12 02:06N 38°57' E 117°44'0 0.0
2015-Mar-12 00:24N 38°57' E 117°44'0 0.0
2015-Mar-11 23:24N 38°57' E 117°44'0 0.0
2015-Mar-11 22:24N 38°57' E 117°44'0 0.0
2015-Mar-11 21:30N 38°57' E 117°44'0 0.0
2015-Mar-11 20:24N 38°57' E 117°44'0 0.0
2015-Mar-11 19:30N 38°57' E 117°44'0 0.0
2015-Mar-11 18:30N 38°57' E 117°44'0 0.0
2015-Mar-11 17:24N 38°57' E 117°44'0 0.0
2015-Mar-11 16:30N 38°57' E 117°44'0 0.0
2015-Mar-11 15:30N 38°57' E 117°44'0 0.0
2015-Mar-11 14:30N 38°57' E 117°44'0 0.0
2015-Mar-11 13:30N 38°57' E 117°44'0 0.0
2015-Mar-11 11:07N 38°57' E 117°44'0 0.8
2015-Mar-11 10:33N 38°57' E 117°44'8 7.6
2015-Mar-11 09:30N 38°55' E 117°54'7 7.3
2015-Mar-11 08:29N 38°51' E 118°02'3 0.5
2015-Mar-11 01:26N 38°54' E 118°06'  
Track history (hours):
 
Tides and Currents Weather Stations Pressure Air Temp Water Temp Dewpoint Dewpoint Depression Visibility Wind Speed Wind Dir Waves Ship Positions

E.r.bristol

Last reported at 2015-Mar-14 06:10 UTC. Time now 2015-Apr-01 22:33 UTC.
Position N 37°34' E 122°52'.
Warning: this ship's position is 18 days out of date.

Length 188 m; draft 6.8 m.

Type: Cargo ship. MMSI: 636092151.

Date/timePositionNaut miles runAvg speedWind from/ knotsBaromVisibWave heightAir tempDewpointWater temp
2015-Mar-14 06:10N 37°34' E 122°52'711.0
2015-Mar-14 05:33N 37°39' E 122°46'1110.6
2015-Mar-14 04:32N 37°45' E 122°35'1310.9
2015-Mar-14 03:18N 37°52' E 122°21'911.3
2015-Mar-14 02:32N 37°57' E 122°11'1211.6
2015-Mar-14 01:31N 38°03' E 121°58'12611.4
2015-Mar-13 14:29N 38°45' E 119°27'81 4.2
2015-Mar-12 19:24N 38°57' E 117°44'0 0.0
2015-Mar-12 18:30N 38°57' E 117°44'0 0.0
2015-Mar-12 17:30N 38°57' E 117°44'0 0.0
2015-Mar-12 16:30N 38°57' E 117°44'0 0.0
2015-Mar-12 15:30N 38°57' E 117°44'0 0.0
2015-Mar-12 14:30N 38°57' E 117°44'0 0.0
2015-Mar-12 13:30N 38°57' E 117°44'0 0.0
2015-Mar-12 12:30N 38°57' E 117°44'0 0.0
2015-Mar-12 11:30N 38°57' E 117°44'0 0.0
2015-Mar-12 10:30N 38°57' E 117°44'0 0.0
2015-Mar-12 09:12N 38°57' E 117°44'0 0.0
2015-Mar-12 08:24N 38°57' E 117°44'0 0.0
2015-Mar-12 07:12N 38°57' E 117°44'0 0.0
2015-Mar-12 06:24N 38°57' E 117°44'0 0.0
2015-Mar-12 05:12N 38°57' E 117°44'0 0.0
2015-Mar-12 04:24N 38°57' E 117°44'0 0.0
2015-Mar-12 03:18N 38°57' E 117°44'0 0.0
2015-Mar-12 02:06N 38°57' E 117°44'0 0.0
2015-Mar-12 00:24N 38°57' E 117°44'0 0.0
2015-Mar-11 23:24N 38°57' E 117°44'0 0.0
2015-Mar-11 22:24N 38°57' E 117°44'0 0.0
2015-Mar-11 21:30N 38°57' E 117°44'0 0.0
2015-Mar-11 20:24N 38°57' E 117°44'0 0.0
2015-Mar-11 19:30N 38°57' E 117°44'0 0.0
2015-Mar-11 18:30N 38°57' E 117°44'0 0.0
2015-Mar-11 17:24N 38°57' E 117°44'0 0.0
2015-Mar-11 16:30N 38°57' E 117°44'0 0.0
2015-Mar-11 15:30N 38°57' E 117°44'0 0.0
2015-Mar-11 14:30N 38°57' E 117°44'0 0.0
2015-Mar-11 13:30N 38°57' E 117°44'0 0.0
2015-Mar-11 11:07N 38°57' E 117°44'0 0.8
2015-Mar-11 10:33N 38°57' E 117°44'8 7.6
2015-Mar-11 09:30N 38°55' E 117°54'7 7.3
2015-Mar-11 08:29N 38°51' E 118°02'3 0.5
2015-Mar-11 01:26N 38°54' E 118°06'  

Dump ship's entire track history